Time;durP1;ratioP1;P1;durP2;ratioP2;P2;SDS_P1;SDS_P2;PMS_P1;PMS_P2;Temp;Humidity;BMP_temperature;BMP_pressure;BME280_temperature;BME280_humidity;BME280_pressure;Samples;Min_cycle;Max_cycle;Signal;HPM_P1;HPM_P2
2022/03/07 00:01:34;;;;;;;21.13;13.55;;;;;;;;;;5032050;28;20022;-65
2022/03/07 00:04:02;;;;;;;17.95;12.55;;;;;;;;;;5037127;28;20473;-65
2022/03/07 00:06:28;;;;;;;21.23;12.43;;;;;;;;;;5033565;28;20052;-65
2022/03/07 00:08:54;;;;;;;21.00;12.90;;;;;;;;;;5033326;28;20033;-65
2022/03/07 00:11:20;;;;;;;15.50;12.35;;;;;;;;;;5031396;28;20037;-66
2022/03/07 00:13:46;;;;;;;24.05;14.50;;;;;;;;;;5031693;28;20041;-65
2022/03/07 00:16:12;;;;;;;19.17;13.60;;;;;;;;;;5030559;28;20040;-66
2022/03/07 00:18:39;;;;;;;18.67;13.25;;;;;;;;;;5038536;28;20029;-66
2022/03/07 00:21:06;;;;;;;21.23;13.52;;;;;;;;;;5030835;28;20052;-66
2022/03/07 00:23:32;;;;;;;19.73;13.57;;;;;;;;;;5030578;28;23175;-65
2022/03/07 00:25:58;;;;;;;25.30;13.63;;;;;;;;;;5033441;28;20041;-66
2022/03/07 00:28:24;;;;;;;18.38;13.25;;;;;;;;;;5034800;28;20108;-65
2022/03/07 00:30:50;;;;;;;25.77;15.57;;;;;;;;;;5029298;28;20034;-65
2022/03/07 00:33:19;;;;;;;28.73;18.27;;;;;;;;;;5039241;28;20029;-65
2022/03/07 00:35:44;;;;;;;28.05;15.75;;;;;;;;;;5036996;28;20037;-65
2022/03/07 00:38:10;;;;;;;30.73;17.58;;;;;;;;;;5038678;28;20037;-65
2022/03/07 00:40:36;;;;;;;31.10;16.85;;;;;;;;;;5034908;28;20072;-65
2022/03/07 00:43:07;;;;;;;36.88;17.38;;;;;;;;;;5035626;28;20466;-65
2022/03/07 00:45:33;;;;;;;22.77;14.73;;;;;;;;;;5041247;28;20429;-65
2022/03/07 00:47:58;;;;;;;17.65;11.60;;;;;;;;;;5036566;28;20043;-65
2022/03/07 00:50:24;;;;;;;19.48;12.50;;;;;;;;;;5033615;28;20041;-65
2022/03/07 00:52:50;;;;;;;22.80;12.48;;;;;;;;;;5034838;28;20413;-65
2022/03/07 00:55:16;;;;;;;16.50;11.27;;;;;;;;;;5041168;28;20124;-65
2022/03/07 00:57:41;;;;;;;16.52;10.95;;;;;;;;;;5045579;28;20107;-65
2022/03/07 01:00:08;;;;;;;17.85;11.65;;;;;;;;;;5035610;28;20560;-65
2022/03/07 01:02:34;;;;;;;20.25;11.77;;;;;;;;;;5034811;28;20497;-65
2022/03/07 01:05:00;;;;;;;18.80;12.25;;;;;;;;;;5042595;28;20051;-64
2022/03/07 01:07:28;;;;;;;21.25;13.68;;;;;;;;;;5033093;28;20032;-64
2022/03/07 01:09:53;;;;;;;22.98;14.38;;;;;;;;;;5044717;28;20033;-64
2022/03/07 01:12:19;;;;;;;23.25;14.88;;;;;;;;;;5039456;28;20041;-65
2022/03/07 01:14:45;;;;;;;28.13;15.23;;;;;;;;;;5035506;28;20148;-65
2022/03/07 01:17:10;;;;;;;23.98;15.63;;;;;;;;;;5040009;28;20041;-65
2022/03/07 01:19:36;;;;;;;27.88;14.02;;;;;;;;;;5032907;28;20035;-64
2022/03/07 01:22:02;;;;;;;25.70;14.68;;;;;;;;;;5034131;28;20466;-65
2022/03/07 01:24:30;;;;;;;22.85;15.85;;;;;;;;;;5037727;28;20404;-65
2022/03/07 01:26:56;;;;;;;24.80;15.05;;;;;;;;;;5038126;28;20037;-65
2022/03/07 01:29:22;;;;;;;25.45;16.45;;;;;;;;;;5034557;28;20038;-65
2022/03/07 01:31:48;;;;;;;21.00;15.60;;;;;;;;;;5041270;28;20414;-65
2022/03/07 01:34:14;;;;;;;24.38;14.82;;;;;;;;;;5032026;28;20044;-65
2022/03/07 01:36:40;;;;;;;23.00;14.88;;;;;;;;;;5036177;28;20065;-65
2022/03/07 01:39:06;;;;;;;24.88;14.93;;;;;;;;;;5035708;28;20047;-65
2022/03/07 01:41:31;;;;;;;29.38;16.20;;;;;;;;;;5034970;28;20021;-65
2022/03/07 01:43:57;;;;;;;27.13;16.63;;;;;;;;;;5034968;28;20034;-66
2022/03/07 01:46:23;;;;;;;24.85;16.13;;;;;;;;;;5036587;28;20052;-65
2022/03/07 01:48:49;;;;;;;22.52;15.82;;;;;;;;;;5038633;28;20391;-66
2022/03/07 01:51:16;;;;;;;27.52;16.38;;;;;;;;;;5035382;28;20088;-65
2022/03/07 01:53:42;;;;;;;25.52;16.92;;;;;;;;;;5035544;28;20036;-65
2022/03/07 01:56:08;;;;;;;24.85;16.33;;;;;;;;;;5045686;28;20327;-65
2022/03/07 01:58:35;;;;;;;25.88;16.75;;;;;;;;;;5037250;28;20033;-65
2022/03/07 02:01:01;;;;;;;26.25;15.95;;;;;;;;;;5037309;28;20027;-65
2022/03/07 02:03:27;;;;;;;23.95;16.52;;;;;;;;;;5032831;28;20501;-65
2022/03/07 02:05:54;;;;;;;22.45;15.82;;;;;;;;;;5032965;28;20025;-65
2022/03/07 02:08:20;;;;;;;22.25;15.75;;;;;;;;;;5032121;28;20075;-65
2022/03/07 02:10:46;;;;;;;25.27;15.70;;;;;;;;;;5040688;28;20418;-65
2022/03/07 02:13:12;;;;;;;23.25;16.63;;;;;;;;;;5036640;28;20025;-65
2022/03/07 02:15:38;;;;;;;24.08;16.17;;;;;;;;;;5039012;28;20453;-64
2022/03/07 02:18:04;;;;;;;29.80;16.90;;;;;;;;;;5036585;28;20116;-65
2022/03/07 02:20:30;;;;;;;22.42;15.93;;;;;;;;;;5033020;28;20030;-65
2022/03/07 02:22:56;;;;;;;23.13;16.02;;;;;;;;;;5034118;28;20489;-64
2022/03/07 02:25:22;;;;;;;25.85;16.17;;;;;;;;;;4986869;28;1374737;-65
2022/03/07 02:27:48;;;;;;;23.45;15.50;;;;;;;;;;5039952;28;20675;-65
2022/03/07 02:30:14;;;;;;;25.92;16.50;;;;;;;;;;5037227;28;20120;-63
2022/03/07 02:32:43;;;;;;;21.88;14.93;;;;;;;;;;5037076;28;20033;-65
2022/03/07 02:35:13;;;;;;;26.30;15.27;;;;;;;;;;5041172;28;20131;-65
2022/03/07 02:37:39;;;;;;;26.63;15.38;;;;;;;;;;5034853;28;20037;-65
2022/03/07 02:40:05;;;;;;;21.90;14.98;;;;;;;;;;5036485;28;20555;-64
2022/03/07 02:42:31;;;;;;;22.25;15.38;;;;;;;;;;5037982;28;20029;-65
2022/03/07 02:44:57;;;;;;;23.05;14.73;;;;;;;;;;5035724;28;20064;-64
2022/03/07 02:47:23;;;;;;;22.40;14.85;;;;;;;;;;5034381;28;20064;-65
2022/03/07 02:49:50;;;;;;;20.67;13.45;;;;;;;;;;5042079;28;20451;-65
2022/03/07 02:52:16;;;;;;;19.52;14.13;;;;;;;;;;5032671;28;20124;-64
2022/03/07 02:54:41;;;;;;;23.45;14.40;;;;;;;;;;5034862;28;20116;-64
2022/03/07 02:57:07;;;;;;;23.40;15.55;;;;;;;;;;5035123;28;20090;-64
2022/03/07 02:59:34;;;;;;;22.85;15.85;;;;;;;;;;5037663;28;20057;-65
2022/03/07 03:02:00;;;;;;;22.60;15.80;;;;;;;;;;5038023;28;20021;-65
2022/03/07 03:04:26;;;;;;;27.15;16.35;;;;;;;;;;5043624;28;20133;-64
2022/03/07 03:06:51;;;;;;;26.05;16.17;;;;;;;;;;5035804;28;20021;-64
2022/03/07 03:09:17;;;;;;;26.02;17.45;;;;;;;;;;5037494;28;20100;-65
2022/03/07 03:11:43;;;;;;;27.80;16.02;;;;;;;;;;5035956;28;20029;-64
2022/03/07 03:14:09;;;;;;;23.35;15.63;;;;;;;;;;5039263;28;20047;-65
2022/03/07 03:16:34;;;;;;;29.42;16.60;;;;;;;;;;5032835;28;20041;-65
2022/03/07 03:19:00;;;;;;;26.33;16.40;;;;;;;;;;5036476;28;20028;-64
2022/03/07 03:21:26;;;;;;;30.25;17.38;;;;;;;;;;5040912;28;20057;-65
2022/03/07 03:23:51;;;;;;;23.67;17.00;;;;;;;;;;5038003;28;20035;-64
2022/03/07 03:26:17;;;;;;;29.38;17.60;;;;;;;;;;5037528;28;20122;-65
2022/03/07 03:28:43;;;;;;;19.65;15.25;;;;;;;;;;5038477;28;20045;-65
2022/03/07 03:31:11;;;;;;;28.92;17.77;;;;;;;;;;5037970;28;20029;-65
2022/03/07 03:33:41;;;;;;;25.80;17.17;;;;;;;;;;5037838;28;20493;-64
2022/03/07 03:36:07;;;;;;;25.08;15.93;;;;;;;;;;5036604;28;20121;-65
2022/03/07 03:38:33;;;;;;;24.77;16.77;;;;;;;;;;5041595;28;20108;-65
2022/03/07 03:40:59;;;;;;;24.80;16.98;;;;;;;;;;5037929;28;20078;-65
2022/03/07 03:43:24;;;;;;;29.33;17.58;;;;;;;;;;5042376;28;20029;-65
2022/03/07 03:45:50;;;;;;;31.50;17.00;;;;;;;;;;5035456;28;20032;-65
2022/03/07 03:48:16;;;;;;;21.70;16.02;;;;;;;;;;5033941;28;20096;-64
2022/03/07 03:50:42;;;;;;;24.40;16.35;;;;;;;;;;5036003;28;20041;-65
2022/03/07 03:53:07;;;;;;;28.60;17.05;;;;;;;;;;5035038;28;20171;-65
2022/03/07 03:55:33;;;;;;;27.25;16.08;;;;;;;;;;5038724;28;20037;-65
2022/03/07 03:57:59;;;;;;;22.95;16.63;;;;;;;;;;5036214;28;20087;-66
2022/03/07 04:00:24;;;;;;;22.42;15.73;;;;;;;;;;5032131;28;20064;-65
2022/03/07 04:02:50;;;;;;;25.23;15.82;;;;;;;;;;5037712;28;20116;-66
2022/03/07 04:05:17;;;;;;;25.17;16.15;;;;;;;;;;5039892;28;20040;-65
2022/03/07 04:07:43;;;;;;;22.23;15.27;;;;;;;;;;5030026;28;20387;-65
2022/03/07 04:10:10;;;;;;;24.05;15.63;;;;;;;;;;5036465;28;20116;-65
2022/03/07 04:12:36;;;;;;;27.02;16.08;;;;;;;;;;5038593;28;20044;-65
2022/03/07 04:15:07;;;;;;;22.67;15.10;;;;;;;;;;5035235;28;20052;-65
2022/03/07 04:17:37;;;;;;;23.50;15.60;;;;;;;;;;5033559;28;20090;-65
2022/03/07 04:20:03;;;;;;;28.75;16.17;;;;;;;;;;5036021;28;20033;-65
2022/03/07 04:22:29;;;;;;;26.27;15.55;;;;;;;;;;5033956;28;20044;-65
2022/03/07 04:24:55;;;;;;;23.73;15.45;;;;;;;;;;5035972;28;20131;-65
2022/03/07 04:27:20;;;;;;;22.10;15.95;;;;;;;;;;5033070;28;20065;-65
2022/03/07 04:29:46;;;;;;;28.00;17.10;;;;;;;;;;5030223;28;20060;-64
2022/03/07 04:32:12;;;;;;;21.40;14.85;;;;;;;;;;5037095;28;20033;-65
2022/03/07 04:34:38;;;;;;;22.55;15.48;;;;;;;;;;5032622;28;20474;-65
2022/03/07 04:37:03;;;;;;;22.98;15.48;;;;;;;;;;5038519;28;20116;-65
2022/03/07 04:39:29;;;;;;;23.58;15.98;;;;;;;;;;5033145;28;20040;-65
2022/03/07 04:41:55;;;;;;;27.15;16.50;;;;;;;;;;5034351;28;20482;-64
2022/03/07 04:44:20;;;;;;;21.98;15.40;;;;;;;;;;5040780;28;20036;-65
2022/03/07 04:46:46;;;;;;;23.00;15.90;;;;;;;;;;5036637;28;20033;-65
2022/03/07 04:49:12;;;;;;;29.85;15.65;;;;;;;;;;5029412;28;20041;-65
2022/03/07 04:51:39;;;;;;;22.10;16.00;;;;;;;;;;5039543;28;20107;-65
2022/03/07 04:54:05;;;;;;;21.98;16.02;;;;;;;;;;5030713;28;20069;-65
2022/03/07 04:56:30;;;;;;;34.05;17.15;;;;;;;;;;5036119;28;21283;-64
2022/03/07 04:58:56;;;;;;;28.10;17.20;;;;;;;;;;5033693;28;20057;-64
2022/03/07 05:01:22;;;;;;;29.55;17.10;;;;;;;;;;5037291;28;20040;-64
2022/03/07 05:03:48;;;;;;;24.27;16.83;;;;;;;;;;5042593;28;20124;-64
2022/03/07 05:06:13;;;;;;;25.92;16.80;;;;;;;;;;5035889;28;20324;-64
2022/03/07 05:08:39;;;;;;;29.17;16.35;;;;;;;;;;5034305;28;20029;-65
2022/03/07 05:11:05;;;;;;;27.40;16.58;;;;;;;;;;5031313;28;20032;-64
2022/03/07 05:13:32;;;;;;;26.20;17.13;;;;;;;;;;5032164;28;20032;-64
2022/03/07 05:15:58;;;;;;;22.67;15.98;;;;;;;;;;5041050;28;20618;-65
2022/03/07 05:18:23;;;;;;;27.45;15.70;;;;;;;;;;5036077;28;20059;-64
2022/03/07 05:20:49;;;;;;;26.27;17.00;;;;;;;;;;5038929;28;20024;-65
2022/03/07 05:23:15;;;;;;;23.58;16.50;;;;;;;;;;5035748;28;20505;-65
2022/03/07 05:25:40;;;;;;;27.10;16.27;;;;;;;;;;5034339;28;20103;-64
2022/03/07 05:28:07;;;;;;;26.83;16.02;;;;;;;;;;5035809;28;20048;-65
2022/03/07 05:30:32;;;;;;;25.40;15.80;;;;;;;;;;5037122;28;20090;-65
2022/03/07 05:32:58;;;;;;;23.10;16.40;;;;;;;;;;5040356;28;20033;-64
2022/03/07 05:35:24;;;;;;;24.90;16.27;;;;;;;;;;5036233;28;20041;-64
2022/03/07 05:37:50;;;;;;;23.85;15.25;;;;;;;;;;5042068;28;20029;-65
2022/03/07 05:40:17;;;;;;;23.95;16.25;;;;;;;;;;5038773;28;20551;-64
2022/03/07 05:42:43;;;;;;;26.02;16.00;;;;;;;;;;5042225;28;20146;-65
2022/03/07 05:45:11;;;;;;;23.48;15.23;;;;;;;;;;5034065;28;20087;-65
2022/03/07 05:47:38;;;;;;;24.08;15.50;;;;;;;;;;5040471;28;20029;-65
2022/03/07 05:50:05;;;;;;;24.75;16.10;;;;;;;;;;5040242;28;20025;-64
2022/03/07 05:52:31;;;;;;;22.50;15.13;;;;;;;;;;5031926;28;20116;-64
2022/03/07 05:54:58;;;;;;;25.02;15.95;;;;;;;;;;5042055;28;20037;-64
2022/03/07 05:57:23;;;;;;;21.60;15.02;;;;;;;;;;5040546;28;20029;-64
2022/03/07 05:59:49;;;;;;;23.73;15.15;;;;;;;;;;5039574;28;20095;-64
2022/03/07 06:02:15;;;;;;;25.08;15.63;;;;;;;;;;5043234;28;20026;-64
2022/03/07 06:04:41;;;;;;;24.20;16.10;;;;;;;;;;5040299;28;20129;-64
2022/03/07 06:07:08;;;;;;;27.23;15.35;;;;;;;;;;5034177;28;20112;-65
2022/03/07 06:09:34;;;;;;;21.35;14.88;;;;;;;;;;5037576;28;20087;-64
2022/03/07 06:11:59;;;;;;;22.95;14.85;;;;;;;;;;5036204;28;20120;-65
2022/03/07 06:14:25;;;;;;;23.48;16.02;;;;;;;;;;5042600;28;20076;-64
2022/03/07 06:16:51;;;;;;;23.58;16.27;;;;;;;;;;5040309;28;20429;-64
2022/03/07 06:19:16;;;;;;;21.73;15.00;;;;;;;;;;5035671;28;20061;-64
2022/03/07 06:21:42;;;;;;;23.15;15.52;;;;;;;;;;5037823;28;20029;-64
2022/03/07 06:24:08;;;;;;;25.73;15.70;;;;;;;;;;5035476;28;20038;-65
2022/03/07 06:26:35;;;;;;;26.65;15.85;;;;;;;;;;5040770;28;20057;-65
2022/03/07 06:29:02;;;;;;;29.17;15.98;;;;;;;;;;5031961;28;20041;-65
2022/03/07 06:31:28;;;;;;;21.48;15.02;;;;;;;;;;5038636;28;20087;-65
2022/03/07 06:33:53;;;;;;;22.67;15.27;;;;;;;;;;5033981;28;20037;-64
2022/03/07 06:36:19;;;;;;;22.13;14.75;;;;;;;;;;5036387;28;20057;-64
2022/03/07 06:38:44;;;;;;;23.35;14.70;;;;;;;;;;5038845;28;20040;-65
2022/03/07 06:41:10;;;;;;;21.70;13.88;;;;;;;;;;5038104;28;20073;-65
2022/03/07 06:43:37;;;;;;;20.02;14.10;;;;;;;;;;5042517;28;20029;-64
2022/03/07 06:46:02;;;;;;;24.15;15.13;;;;;;;;;;5033744;28;20047;-65
2022/03/07 06:48:28;;;;;;;20.27;14.25;;;;;;;;;;5039740;28;20440;-64
2022/03/07 06:50:54;;;;;;;26.45;15.20;;;;;;;;;;5038805;28;20108;-61
2022/03/07 06:53:20;;;;;;;21.30;14.75;;;;;;;;;;5035046;28;20037;-65
2022/03/07 06:55:45;;;;;;;22.80;15.20;;;;;;;;;;5039560;28;20040;-64
2022/03/07 06:58:11;;;;;;;21.63;14.50;;;;;;;;;;5042240;28;20052;-64
2022/03/07 07:00:37;;;;;;;24.02;15.48;;;;;;;;;;5038840;28;20033;-64
2022/03/07 07:03:03;;;;;;;29.17;16.10;;;;;;;;;;5034950;28;20494;-65
2022/03/07 07:05:28;;;;;;;23.58;14.80;;;;;;;;;;5034504;28;20025;-65
2022/03/07 07:07:54;;;;;;;22.02;15.10;;;;;;;;;;5036743;28;20033;-65
2022/03/07 07:10:20;;;;;;;25.58;15.18;;;;;;;;;;5035326;28;20029;-65
2022/03/07 07:12:48;;;;;;;21.65;15.10;;;;;;;;;;5034520;28;20037;-65
2022/03/07 07:15:13;;;;;;;20.92;14.38;;;;;;;;;;5032024;28;20479;-65
2022/03/07 07:17:40;;;;;;;30.45;15.43;;;;;;;;;;5043737;28;20049;-64
2022/03/07 07:20:10;;;;;;;27.80;15.88;;;;;;;;;;5031152;28;20138;-65
2022/03/07 07:22:37;;;;;;;21.90;14.43;;;;;;;;;;5029989;28;20025;-64
2022/03/07 07:25:04;;;;;;;21.60;14.88;;;;;;;;;;5034365;28;20102;-64
2022/03/07 07:27:30;;;;;;;24.60;16.02;;;;;;;;;;5036802;28;20112;-65
2022/03/07 07:29:56;;;;;;;29.00;18.17;;;;;;;;;;5039554;28;20032;-65
2022/03/07 07:32:22;;;;;;;25.08;16.50;;;;;;;;;;5036284;28;20146;-65
2022/03/07 07:34:48;;;;;;;24.40;14.45;;;;;;;;;;5035121;28;20037;-65
2022/03/07 07:37:14;;;;;;;21.58;14.05;;;;;;;;;;5029237;28;20048;-64
2022/03/07 07:39:40;;;;;;;21.48;15.15;;;;;;;;;;5036959;28;20033;-65
2022/03/07 07:42:06;;;;;;;23.92;16.75;;;;;;;;;;5040458;28;20531;-64
2022/03/07 07:44:31;;;;;;;23.52;16.98;;;;;;;;;;5035281;28;20029;-65
2022/03/07 07:46:57;;;;;;;27.00;17.45;;;;;;;;;;5036629;28;20371;-64
2022/03/07 07:49:24;;;;;;;21.67;16.52;;;;;;;;;;5035360;28;20091;-64
2022/03/07 07:51:53;;;;;;;22.67;16.13;;;;;;;;;;5032673;28;20025;-65
2022/03/07 07:54:19;;;;;;;20.40;15.23;;;;;;;;;;5039054;28;20045;-64
2022/03/07 07:56:45;;;;;;;27.40;15.60;;;;;;;;;;5037668;28;20082;-65
2022/03/07 07:59:11;;;;;;;25.08;15.02;;;;;;;;;;5037070;28;20757;-65
2022/03/07 08:01:37;;;;;;;22.92;15.23;;;;;;;;;;5041884;28;20486;-64
2022/03/07 08:04:03;;;;;;;23.70;15.90;;;;;;;;;;5038230;28;20032;-65
2022/03/07 08:06:29;;;;;;;20.83;15.77;;;;;;;;;;5033913;28;20064;-65
2022/03/07 08:08:54;;;;;;;20.30;14.90;;;;;;;;;;5033958;28;20174;-63
2022/03/07 08:11:20;;;;;;;22.65;15.40;;;;;;;;;;5037943;28;20037;-64
2022/03/07 08:13:46;;;;;;;19.60;14.32;;;;;;;;;;5035599;28;20363;-65
2022/03/07 08:16:12;;;;;;;26.40;17.02;;;;;;;;;;5036803;28;20033;-65
2022/03/07 08:18:37;;;;;;;26.63;15.95;;;;;;;;;;5032496;28;20032;-65
2022/03/07 08:21:03;;;;;;;26.10;14.57;;;;;;;;;;5034923;28;20030;-65
2022/03/07 08:23:29;;;;;;;20.15;14.65;;;;;;;;;;5030655;28;20037;-65
2022/03/07 08:25:55;;;;;;;21.88;15.48;;;;;;;;;;5030485;28;20521;-65
2022/03/07 08:28:21;;;;;;;25.63;16.10;;;;;;;;;;5035329;28;20048;-64
2022/03/07 08:30:47;;;;;;;24.77;14.82;;;;;;;;;;5034028;28;20021;-65
2022/03/07 08:33:12;;;;;;;26.42;18.17;;;;;;;;;;5034083;28;20124;-65
2022/03/07 08:35:38;;;;;;;39.50;24.13;;;;;;;;;;5037553;28;20037;-65
2022/03/07 08:38:04;;;;;;;29.58;19.08;;;;;;;;;;5034855;28;20036;-65
2022/03/07 08:40:30;;;;;;;17.83;14.02;;;;;;;;;;5034594;28;20390;-65
2022/03/07 08:42:56;;;;;;;19.77;14.00;;;;;;;;;;5035380;28;20033;-64
2022/03/07 08:45:25;;;;;;;23.95;14.60;;;;;;;;;;5033264;28;20045;-65
2022/03/07 08:47:51;;;;;;;26.02;14.43;;;;;;;;;;5030955;28;20030;-65
2022/03/07 08:50:20;;;;;;;20.83;13.30;;;;;;;;;;5031394;28;20496;-64
2022/03/07 08:52:47;;;;;;;24.73;14.07;;;;;;;;;;5043898;28;20025;-64
2022/03/07 08:55:13;;;;;;;16.75;12.13;;;;;;;;;;5035586;28;20041;-65
2022/03/07 08:57:39;;;;;;;23.08;13.68;;;;;;;;;;5039972;28;20045;-64
2022/03/07 09:00:08;;;;;;;20.88;13.23;;;;;;;;;;5037921;28;20389;-64
2022/03/07 09:02:35;;;;;;;26.13;14.50;;;;;;;;;;5036066;28;20554;-65
2022/03/07 09:05:01;;;;;;;19.73;12.95;;;;;;;;;;5035777;28;20104;-65
2022/03/07 09:07:29;;;;;;;24.52;13.80;;;;;;;;;;5043932;28;20136;-64
2022/03/07 09:09:57;;;;;;;22.83;13.73;;;;;;;;;;5034713;28;20040;-64
2022/03/07 09:12:27;;;;;;;25.85;13.98;;;;;;;;;;5038554;28;20128;-64
2022/03/07 09:15:04;;;;;;;20.75;13.65;;;;;;;;;;5042771;28;20044;-65
2022/03/07 09:17:30;;;;;;;20.50;13.45;;;;;;;;;;5037811;28;20706;-65
2022/03/07 09:19:58;;;;;;;19.65;14.40;;;;;;;;;;5039993;28;20104;-65
2022/03/07 09:22:25;;;;;;;25.73;13.43;;;;;;;;;;5038679;28;20083;-65
2022/03/07 09:24:51;;;;;;;25.48;15.27;;;;;;;;;;5037960;28;20048;-65
2022/03/07 09:27:17;;;;;;;32.95;15.57;;;;;;;;;;5039999;28;20067;-65
2022/03/07 09:29:43;;;;;;;27.95;14.90;;;;;;;;;;5036232;28;20079;-65
2022/03/07 09:32:09;;;;;;;31.35;16.00;;;;;;;;;;5040194;28;20063;-63
2022/03/07 09:34:36;;;;;;;28.20;15.93;;;;;;;;;;5036263;28;20650;-65
2022/03/07 09:37:04;;;;;;;30.98;17.27;;;;;;;;;;5043230;28;20040;-65
2022/03/07 09:39:31;;;;;;;33.10;19.20;;;;;;;;;;5040074;28;22025;-65
2022/03/07 09:41:58;;;;;;;37.50;22.73;;;;;;;;;;5034875;28;20079;-65
2022/03/07 09:44:24;;;;;;;44.22;24.00;;;;;;;;;;5036044;28;20111;-64
2022/03/07 09:46:50;;;;;;;36.28;22.70;;;;;;;;;;5035272;28;20033;-65
2022/03/07 09:49:19;;;;;;;36.15;20.65;;;;;;;;;;5036928;28;20045;-65
2022/03/07 09:51:44;;;;;;;35.50;19.58;;;;;;;;;;5035647;28;22244;-65
2022/03/07 09:54:10;;;;;;;25.02;17.10;;;;;;;;;;5038699;28;20501;-65
2022/03/07 09:56:36;;;;;;;27.75;17.40;;;;;;;;;;5039439;28;20384;-65
2022/03/07 09:59:03;;;;;;;27.98;17.83;;;;;;;;;;5040151;28;20033;-65
2022/03/07 10:01:29;;;;;;;25.55;17.58;;;;;;;;;;5039629;28;20646;-65
2022/03/07 10:04:06;;;;;;;29.15;19.27;;;;;;;;;;5039844;28;20037;-65
2022/03/07 10:06:32;;;;;;;31.45;19.10;;;;;;;;;;5036099;28;20025;-65
2022/03/07 10:08:59;;;;;;;25.48;18.30;;;;;;;;;;5038191;28;20397;-64
2022/03/07 10:11:26;;;;;;;29.02;17.80;;;;;;;;;;5033027;28;20045;-65
2022/03/07 10:13:54;;;;;;;24.00;17.10;;;;;;;;;;5033992;28;20060;-65
2022/03/07 10:16:21;;;;;;;26.27;16.90;;;;;;;;;;5032743;28;20462;-65
2022/03/07 10:18:51;;;;;;;27.02;18.15;;;;;;;;;;5039675;28;20071;-65
2022/03/07 10:21:22;;;;;;;24.90;16.00;;;;;;;;;;5037105;28;20033;-65
2022/03/07 10:23:56;;;;;;;26.73;17.52;;;;;;;;;;5041771;28;20055;-65
2022/03/07 10:26:23;;;;;;;25.13;17.85;;;;;;;;;;5036306;28;20045;-65
2022/03/07 10:28:57;;;;;;;23.48;17.83;;;;;;;;;;5038003;28;20269;-65
2022/03/07 10:31:24;;;;;;;23.88;17.58;;;;;;;;;;5032438;28;20038;-66
2022/03/07 10:34:10;;;;;;;36.47;21.00;;;;;;;;;;5043507;28;20071;-65
2022/03/07 10:36:38;;;;;;;32.83;19.75;;;;;;;;;;5041429;28;20079;-64
2022/03/07 10:39:06;;;;;;;30.02;19.67;;;;;;;;;;5039199;28;20029;-65
2022/03/07 10:41:41;;;;;;;20.02;15.10;;;;;;;;;;5033600;28;20040;-65
2022/03/07 10:44:11;;;;;;;32.60;22.10;;;;;;;;;;5035073;28;20041;-65
2022/03/07 10:46:38;;;;;;;26.83;19.65;;;;;;;;;;5037121;28;20482;-65
2022/03/07 10:49:06;;;;;;;29.00;17.70;;;;;;;;;;5035228;28;20513;-65
2022/03/07 10:51:32;;;;;;;20.73;15.25;;;;;;;;;;5043158;28;20040;-65
2022/03/07 10:54:09;;;;;;;21.73;14.82;;;;;;;;;;5037630;28;20478;-65
2022/03/07 10:56:36;;;;;;;25.38;17.85;;;;;;;;;;5036778;28;20033;-65
2022/03/07 10:59:06;;;;;;;26.23;18.75;;;;;;;;;;5031915;28;20090;-64
2022/03/07 11:01:33;;;;;;;26.77;16.95;;;;;;;;;;5035451;28;20038;-65
2022/03/07 11:03:59;;;;;;;21.67;14.50;;;;;;;;;;5034206;28;20117;-65
2022/03/07 11:06:27;;;;;;;18.80;14.10;;;;;;;;;;5036371;28;20037;-65
2022/03/07 11:08:53;;;;;;;21.40;15.02;;;;;;;;;;5045564;28;20297;-65
2022/03/07 11:11:21;;;;;;;22.55;16.10;;;;;;;;;;5033898;28;20025;-65
2022/03/07 11:13:51;;;;;;;21.20;15.85;;;;;;;;;;5036009;28;20062;-65
2022/03/07 11:16:21;;;;;;;22.20;14.75;;;;;;;;;;5031858;28;20029;-64
2022/03/07 11:18:53;;;;;;;19.15;14.00;;;;;;;;;;5036427;28;20116;-65
2022/03/07 11:21:18;;;;;;;16.75;13.38;;;;;;;;;;5034507;28;20075;-65
2022/03/07 11:23:45;;;;;;;20.42;14.20;;;;;;;;;;5032919;28;20454;-64
2022/03/07 11:26:11;;;;;;;19.00;14.40;;;;;;;;;;5038133;28;20124;-65
2022/03/07 11:28:37;;;;;;;23.25;13.95;;;;;;;;;;5029878;28;20650;-65
2022/03/07 11:31:03;;;;;;;17.00;13.43;;;;;;;;;;5034802;28;20034;-64
2022/03/07 11:33:37;;;;;;;15.50;12.82;;;;;;;;;;5030822;28;20036;-64
2022/03/07 11:36:14;;;;;;;17.60;14.02;;;;;;;;;;5037830;28;20534;-64
2022/03/07 11:38:57;;;;;;;16.38;13.43;;;;;;;;;;5032487;28;20152;-65
2022/03/07 11:41:33;;;;;;;18.75;13.85;;;;;;;;;;5035470;28;20549;-64
2022/03/07 11:44:10;;;;;;;17.48;13.55;;;;;;;;;;5038048;28;20037;-64
2022/03/07 11:46:51;;;;;;;19.73;14.98;;;;;;;;;;5033508;28;20029;-65
2022/03/07 11:49:28;;;;;;;27.92;15.68;;;;;;;;;;5031228;28;20033;-64
2022/03/07 11:52:00;;;;;;;21.83;14.52;;;;;;;;;;5039520;28;20025;-64
2022/03/07 11:54:26;;;;;;;21.88;14.32;;;;;;;;;;5033727;28;20036;-64
2022/03/07 11:57:03;;;;;;;23.83;14.32;;;;;;;;;;5038384;28;20103;-64
2022/03/07 11:59:30;;;;;;;18.23;14.40;;;;;;;;;;5034666;28;20047;-64
2022/03/07 12:01:55;;;;;;;20.65;14.55;;;;;;;;;;5035540;28;20115;-64
2022/03/07 12:04:22;;;;;;;21.67;15.32;;;;;;;;;;5033424;28;20080;-64
2022/03/07 12:06:51;;;;;;;25.13;15.18;;;;;;;;;;5035099;28;20073;-64
2022/03/07 12:09:32;;;;;;;19.52;14.68;;;;;;;;;;5033288;28;20017;-64
2022/03/07 12:12:20;;;;;;;23.03;15.77;;;;;;;;;;5037907;28;20037;-64
2022/03/07 12:14:47;;;;;;;23.88;14.95;;;;;;;;;;5034557;28;20036;-64
2022/03/07 12:17:14;;;;;;;24.45;15.77;;;;;;;;;;5032823;28;20115;-64
2022/03/07 12:19:41;;;;;;;22.60;15.50;;;;;;;;;;5029044;28;20048;-64
2022/03/07 12:22:15;;;;;;;22.40;16.10;;;;;;;;;;5031343;28;20057;-64
2022/03/07 12:24:41;;;;;;;18.15;14.73;;;;;;;;;;5036138;28;20057;-64
2022/03/07 12:27:08;;;;;;;21.55;14.65;;;;;;;;;;5036103;28;20029;-64
2022/03/07 12:29:37;;;;;;;21.05;15.80;;;;;;;;;;5040100;28;20489;-64
2022/03/07 12:32:05;;;;;;;21.48;15.60;;;;;;;;;;5035963;28;20052;-64
2022/03/07 12:34:33;;;;;;;19.70;14.57;;;;;;;;;;5037612;28;20111;-64
2022/03/07 12:37:15;;;;;;;26.38;15.35;;;;;;;;;;5046294;28;20024;-64
2022/03/07 12:39:47;;;;;;;19.67;13.70;;;;;;;;;;5039030;28;20204;-64
2022/03/07 12:42:15;;;;;;;22.13;14.00;;;;;;;;;;5043064;28;20041;-64
2022/03/07 12:44:41;;;;;;;20.80;15.27;;;;;;;;;;5038669;28;20067;-64
2022/03/07 12:47:08;;;;;;;25.65;13.77;;;;;;;;;;5039716;28;20052;-64
2022/03/07 12:49:35;;;;;;;19.13;11.77;;;;;;;;;;5039812;28;20133;-64
2022/03/07 12:52:06;;;;;;;18.67;13.35;;;;;;;;;;5037146;28;20166;-64
2022/03/07 12:54:34;;;;;;;20.75;13.77;;;;;;;;;;5039576;28;20674;-64
2022/03/07 12:57:01;;;;;;;17.00;12.32;;;;;;;;;;5035084;28;20434;-64
2022/03/07 12:59:29;;;;;;;18.45;12.50;;;;;;;;;;5039182;28;20034;-64
2022/03/07 13:01:55;;;;;;;19.85;11.32;;;;;;;;;;5043804;28;20492;-64
2022/03/07 13:04:26;;;;;;;16.75;12.48;;;;;;;;;;5043502;28;20044;-64
2022/03/07 13:06:55;;;;;;;17.75;12.23;;;;;;;;;;5037449;28;20040;-64
2022/03/07 13:09:28;;;;;;;18.27;12.43;;;;;;;;;;5036174;28;20705;-64
2022/03/07 13:11:54;;;;;;;16.35;11.70;;;;;;;;;;5036122;28;20038;-64
2022/03/07 13:14:25;;;;;;;14.20;10.98;;;;;;;;;;5036333;28;20285;-64
2022/03/07 13:16:52;;;;;;;16.70;12.00;;;;;;;;;;5037170;28;20032;-64
2022/03/07 13:19:23;;;;;;;16.08;12.23;;;;;;;;;;5038288;28;20033;-65
2022/03/07 13:21:50;;;;;;;15.30;11.80;;;;;;;;;;5037693;28;20029;-64
2022/03/07 13:24:21;;;;;;;17.40;10.82;;;;;;;;;;5040409;28;20043;-64
2022/03/07 13:27:11;;;;;;;18.85;13.32;;;;;;;;;;5036734;28;20159;-64
2022/03/07 13:29:40;;;;;;;15.73;11.77;;;;;;;;;;5038896;28;20488;-63
2022/03/07 13:32:17;;;;;;;17.73;12.15;;;;;;;;;;5033083;28;20834;-64
2022/03/07 13:34:48;;;;;;;18.30;12.68;;;;;;;;;;5033227;28;20037;-64
2022/03/07 13:37:27;;;;;;;20.38;12.90;;;;;;;;;;5034196;28;20098;-64
2022/03/07 13:40:05;;;;;;;16.13;11.77;;;;;;;;;;5036508;28;20029;-64
2022/03/07 13:42:40;;;;;;;19.52;12.68;;;;;;;;;;5039355;28;20068;-64
2022/03/07 13:45:12;;;;;;;15.20;12.00;;;;;;;;;;5035202;28;20478;-64
2022/03/07 13:47:39;;;;;;;14.18;10.35;;;;;;;;;;5034539;28;20109;-64
2022/03/07 13:50:06;;;;;;;17.52;11.82;;;;;;;;;;5036628;28;20140;-65
2022/03/07 13:52:37;;;;;;;13.60;10.57;;;;;;;;;;5033151;28;20493;-64
2022/03/07 13:55:20;;;;;;;22.42;13.05;;;;;;;;;;5031433;28;20572;-64
2022/03/07 13:57:49;;;;;;;;;;;;;;;;;;5035667;28;20041;-64
2022/03/07 14:00:20;;;;;;;14.02;10.35;;;;;;;;;;5038260;28;20365;-63
2022/03/07 14:02:50;;;;;;;15.93;11.02;;;;;;;;;;5033435;28;20060;-64
2022/03/07 14:05:18;;;;;;;18.80;11.05;;;;;;;;;;5038703;28;20049;-64
2022/03/07 14:07:55;;;;;;;19.08;11.88;;;;;;;;;;5043107;28;20071;-64
2022/03/07 14:10:23;;;;;;;14.15;11.20;;;;;;;;;;5035059;28;20038;-64
2022/03/07 14:12:54;;;;;;;16.02;11.30;;;;;;;;;;5032696;28;20080;-64
2022/03/07 14:15:40;;;;;;;23.55;11.57;;;;;;;;;;5036515;28;20056;-64
2022/03/07 14:18:08;;;;;;;19.35;13.65;;;;;;;;;;5033963;28;20029;-64